MMLM/LMM METAR and TAF weather

Enter ICAO airport designator
Station Type Date Time Source
MMLM METAR 2019/02/16 02:41 UTC NOAA

MMLM 160241Z 29008KT 10SM SCT220 22/12 A2994 RMK SLP139 8/004


Station Type Date Time Source
MMLM Decoded METAR 2019/02/16 02:41 UTC NOAA

Los Mochis Airport, Mexico (MMLM) 25-41N 109-05W
Feb 15, 2019 - 09:41 PM EST / 2019.02.16 0241 UTC
Wind: from the WNW (290 degrees) at 9 MPH (8 KT):0
Visibility: 10 mile(s):0
Sky conditions: partly cloudy
Temperature: 71 F (22 C)
Dew Point: 53 F (12 C)
Relative Humidity: 53%
Pressure (altimeter): 29.94 in. Hg (1013 hPa)
ob: MMLM 160241Z 29008KT 10SM SCT220 22/12 A2994 RMK SLP139 8/004
cycle: 2

Station Type Date Time Source
MMLM TAF 2019/02/15 18:48 UTC NOAA

TAF TAF MMLM 151645Z 1518/1618 28015KT P6SM BKN250
FM160300 24010KT P6SM SCT250


Example: see airport list